createdAt,value
2023-05-01T00:01:54.064Z,101367.92
2023-05-01T00:04:23.181Z,101371.34
2023-05-01T00:06:52.428Z,101365.98
2023-05-01T00:09:21.710Z,101367.96
2023-05-01T00:11:50.768Z,101363.23
2023-05-01T00:14:19.865Z,101366.55
2023-05-01T00:16:49.092Z,101361.34
2023-05-01T00:19:18.247Z,101359.83
2023-05-01T00:21:47.588Z,101359.44
2023-05-01T00:24:16.723Z,101355.85
2023-05-01T00:26:45.888Z,101355.19
2023-05-01T00:29:15.354Z,101353.77
2023-05-01T00:31:44.859Z,101357.11
2023-05-01T00:34:13.935Z,101353.29
2023-05-01T00:36:43.263Z,101354.55
2023-05-01T00:39:12.330Z,101356.06
2023-05-01T00:41:41.330Z,101351.59
2023-05-01T00:44:10.332Z,101352.77
2023-05-01T00:46:39.380Z,101348.34
2023-05-01T00:49:08.499Z,101345.45
2023-05-01T00:51:37.509Z,101344.45
2023-05-01T00:54:06.709Z,101343.32
2023-05-01T00:56:35.777Z,101339.23
2023-05-01T00:59:04.856Z,101339.68
2023-05-01T01:01:34.357Z,101336.38
2023-05-01T01:04:03.488Z,101333.39
2023-05-01T01:06:39.093Z,101334.24
2023-05-01T01:09:12.328Z,101330.33
2023-05-01T01:11:45.670Z,101335.56
2023-05-01T01:14:17.532Z,101339.38
2023-05-01T01:16:53.565Z,101343.48
2023-05-01T01:19:41.468Z,101349.77
2023-05-01T01:22:12.171Z,101351.08
2023-05-01T01:25:00.813Z,101349.67
2023-05-01T01:27:39.866Z,101350.58
2023-05-01T01:30:17.771Z,101351.50
2023-05-01T01:33:06.562Z,101348.41
2023-05-01T01:35:36.870Z,101343.92
2023-05-01T01:38:09.495Z,101346.85
2023-05-01T01:40:39.624Z,101347.85
2023-05-01T01:43:10.552Z,101341.92
2023-05-01T01:45:39.944Z,101341.52
2023-05-01T01:48:11.145Z,101333.60
2023-05-01T01:50:42.181Z,101329.23
2023-05-01T01:53:13.337Z,101329.06
2023-05-01T01:55:43.628Z,101324.84
2023-05-01T01:58:13.762Z,101327.33
2023-05-01T02:00:44.461Z,101322.91
2023-05-01T02:03:14.648Z,101323.27
2023-05-01T02:05:44.382Z,101322.17
2023-05-01T02:08:14.585Z,101322.34
2023-05-01T02:10:44.166Z,101323.17
2023-05-01T02:13:13.786Z,101319.32
2023-05-01T02:15:45.135Z,101317.11
2023-05-01T02:18:14.720Z,101308.73
2023-05-01T02:20:44.130Z,101310.08
2023-05-01T02:23:13.314Z,101310.10
2023-05-01T02:25:44.145Z,101307.15
2023-05-01T02:28:13.747Z,101309.19
2023-05-01T02:30:42.762Z,101307.96
2023-05-01T02:33:11.882Z,101301.40
2023-05-01T02:35:41.447Z,101304.09
2023-05-01T02:38:10.716Z,101300.52
2023-05-01T02:40:40.004Z,101294.58
2023-05-01T02:43:09.995Z,101295.10
2023-05-01T02:45:40.393Z,101292.55
2023-05-01T02:48:10.967Z,101293.02
2023-05-01T02:50:40.348Z,101291.29
2023-05-01T02:53:09.567Z,101291.01
2023-05-01T02:55:38.869Z,101287.36
2023-05-01T02:58:07.993Z,101285.24
2023-05-01T03:00:37.054Z,101284.84
2023-05-01T03:03:06.140Z,101282.41
2023-05-01T03:05:35.231Z,101279.35
2023-05-01T03:08:04.526Z,101278.40
2023-05-01T03:10:33.791Z,101277.83
2023-05-01T03:13:02.839Z,101275.77
2023-05-01T03:15:31.842Z,101280.77
2023-05-01T03:18:00.906Z,101277.31
2023-05-01T03:20:30.022Z,101275.86
2023-05-01T03:22:59.209Z,101273.83
2023-05-01T03:25:28.379Z,101267.00
2023-05-01T03:27:57.508Z,101265.09
2023-05-01T03:30:26.560Z,101259.48
2023-05-01T03:32:55.689Z,101260.77
2023-05-01T03:35:24.873Z,101263.36
2023-05-01T03:37:53.950Z,101262.01
2023-05-01T03:40:23.058Z,101265.73
2023-05-01T03:42:52.180Z,101267.23
2023-05-01T03:45:21.233Z,101268.70
2023-05-01T03:47:50.422Z,101265.84
2023-05-01T03:50:19.621Z,101264.85
2023-05-01T03:52:48.679Z,101263.59
2023-05-01T03:55:21.195Z,101261.23
2023-05-01T03:57:50.282Z,101263.67
2023-05-01T04:00:19.490Z,101260.86
2023-05-01T04:02:48.757Z,101261.70
2023-05-01T04:05:18.188Z,101266.02
2023-05-01T04:07:47.316Z,101255.64
2023-05-01T04:10:16.537Z,101257.51
2023-05-01T04:12:45.558Z,101253.61
2023-05-01T04:15:15.617Z,101250.75
2023-05-01T04:17:45.089Z,101248.73
2023-05-01T04:20:14.166Z,101248.14
2023-05-01T04:22:43.193Z,101249.33
2023-05-01T04:25:12.242Z,101245.02
2023-05-01T04:27:41.334Z,101243.36
2023-05-01T04:30:11.151Z,101244.51
2023-05-01T04:32:40.310Z,101242.78
2023-05-01T04:35:11.212Z,101240.83
2023-05-01T04:37:40.277Z,101236.05
2023-05-01T04:40:11.669Z,101237.87
2023-05-01T04:42:40.993Z,101238.20
2023-05-01T04:45:11.029Z,101240.48
2023-05-01T04:47:40.172Z,101243.63
2023-05-01T04:50:11.160Z,101241.56
2023-05-01T04:52:40.208Z,101239.81
2023-05-01T04:55:10.664Z,101244.41
2023-05-01T04:57:39.773Z,101247.16
2023-05-01T05:00:09.778Z,101248.97
2023-05-01T05:02:38.948Z,101246.45
2023-05-01T05:05:08.538Z,101242.84
2023-05-01T05:07:37.612Z,101243.45
2023-05-01T05:10:09.030Z,101239.41
2023-05-01T05:12:38.190Z,101237.70
2023-05-01T05:15:10.082Z,101240.00
2023-05-01T05:17:39.201Z,101240.25
2023-05-01T05:20:10.095Z,101239.23
2023-05-01T05:22:39.181Z,101237.82
2023-05-01T05:25:08.932Z,101228.54
2023-05-01T05:27:38.032Z,101226.48
2023-05-01T05:30:08.149Z,101228.00
2023-05-01T05:32:37.460Z,101225.75
2023-05-01T05:35:07.222Z,101227.71
2023-05-01T05:37:36.271Z,101222.46
2023-05-01T05:40:27.155Z,101222.92
2023-05-01T05:42:56.188Z,101223.49
2023-05-01T05:45:25.306Z,101221.20
2023-05-01T05:47:54.464Z,101221.31
2023-05-01T05:50:23.680Z,101220.73
2023-05-01T05:52:52.737Z,101218.16
2023-05-01T05:56:31.601Z,101215.27
2023-05-01T05:58:11.567Z,101215.45
2023-05-01T06:00:40.628Z,101216.36
2023-05-01T06:03:09.785Z,101214.07
2023-05-01T06:05:39.104Z,101217.20
2023-05-01T06:08:08.253Z,101218.07
2023-05-01T06:10:39.933Z,101217.54
2023-05-01T06:13:33.535Z,101217.84
2023-05-01T06:16:25.099Z,101215.89
2023-05-01T06:18:54.226Z,101217.70
2023-05-01T06:21:23.328Z,101219.40
2023-05-01T06:23:52.838Z,101215.05
2023-05-01T06:26:21.922Z,101214.45
2023-05-01T06:28:51.167Z,101215.06
2023-05-01T06:31:22.840Z,101215.25
2023-05-01T06:33:52.001Z,101217.86
2023-05-01T06:36:28.348Z,101213.95
2023-05-01T06:38:57.459Z,101208.98
2023-05-01T06:41:26.502Z,101204.13
2023-05-01T06:43:57.531Z,101204.20
2023-05-01T06:46:26.588Z,101201.23
2023-05-01T06:48:55.664Z,101198.11
2023-05-01T06:51:24.823Z,101195.87
2023-05-01T06:54:14.389Z,101189.92
2023-05-01T06:56:43.458Z,101190.84
2023-05-01T06:59:12.508Z,101190.01
2023-05-01T07:01:41.599Z,101186.36
2023-05-01T07:04:10.709Z,101182.88
2023-05-01T07:06:39.841Z,101184.64
2023-05-01T07:09:08.956Z,101188.48
2023-05-01T07:11:38.441Z,101187.07
2023-05-01T07:14:07.481Z,101185.85
2023-05-01T07:16:36.628Z,101184.14
2023-05-01T07:19:05.753Z,101187.54
2023-05-01T07:21:34.847Z,101184.23
2023-05-01T07:24:04.121Z,101183.58
2023-05-01T07:26:33.342Z,101184.46
2023-05-01T07:29:02.388Z,101185.91
2023-05-01T07:31:31.448Z,101179.41
2023-05-01T07:34:02.636Z,101174.59
2023-05-01T07:36:52.244Z,101172.63
2023-05-01T07:39:21.521Z,101172.19
2023-05-01T07:41:50.642Z,101171.10
2023-05-01T07:44:19.654Z,101167.07
2023-05-01T07:46:48.678Z,101168.02
2023-05-01T07:49:17.760Z,101165.83
2023-05-01T07:51:47.266Z,101163.42
2023-05-01T07:54:16.379Z,101163.59
2023-05-01T07:56:46.324Z,101161.80
2023-05-01T07:59:16.945Z,101156.69
2023-05-01T08:01:48.657Z,101152.66
2023-05-01T08:04:17.836Z,101148.09
2023-05-01T08:06:47.157Z,101146.80
2023-05-01T08:09:16.283Z,101144.82
2023-05-01T08:11:45.401Z,101149.35
2023-05-01T08:14:14.408Z,101141.13
2023-05-01T08:16:43.622Z,101144.95
2023-05-01T08:19:12.891Z,101143.20
2023-05-01T08:21:41.949Z,101143.62
2023-05-01T08:24:13.261Z,101140.67
2023-05-01T08:26:42.386Z,101137.77
2023-05-01T08:29:11.520Z,101135.67
2023-05-01T08:31:40.739Z,101133.64
2023-05-01T08:34:09.840Z,101133.33
2023-05-01T08:36:38.905Z,101136.40
2023-05-01T08:39:07.957Z,101133.14
2023-05-01T08:41:37.605Z,101140.02
2023-05-01T08:44:08.027Z,101134.46
2023-05-01T08:46:44.297Z,101127.36
2023-05-01T08:49:15.061Z,101123.99
2023-05-01T08:51:45.105Z,101118.81
2023-05-01T08:54:14.714Z,101121.41
2023-05-01T08:56:44.863Z,101120.42
2023-05-01T08:59:14.569Z,101120.91
2023-05-01T09:01:44.191Z,101110.91
2023-05-01T09:04:13.470Z,101116.23
2023-05-01T09:06:42.724Z,101113.23
2023-05-01T09:09:11.908Z,101112.66
2023-05-01T09:11:43.396Z,101110.84
2023-05-01T09:14:12.489Z,101103.04
2023-05-01T09:16:41.716Z,101100.33
2023-05-01T09:19:13.520Z,101099.56
2023-05-01T09:21:42.655Z,101092.77
2023-05-01T09:24:11.704Z,101093.46
2023-05-01T09:26:41.394Z,101090.73
2023-05-01T09:29:10.493Z,101089.53
2023-05-01T09:31:39.535Z,101086.71
2023-05-01T09:34:09.385Z,101079.17
2023-05-01T09:36:38.609Z,101073.88
2023-05-01T09:39:07.648Z,101074.73
2023-05-01T09:41:50.424Z,101075.96
2023-05-01T09:44:19.448Z,101072.67
2023-05-01T09:46:48.704Z,101061.21
2023-05-01T09:49:17.784Z,101054.20
2023-05-01T09:51:46.894Z,101054.46
2023-05-01T09:54:19.364Z,101055.88
2023-05-01T09:56:49.301Z,101051.08
2023-05-01T09:59:19.462Z,101057.87
2023-05-01T10:01:48.647Z,101052.27
2023-05-01T10:04:17.870Z,101046.15
2023-05-01T10:06:46.990Z,101043.32
2023-05-01T10:09:26.783Z,101040.27
2023-05-01T10:11:56.487Z,101037.02
2023-05-01T10:14:25.554Z,101038.81
2023-05-01T10:16:54.801Z,101039.67
2023-05-01T10:19:24.010Z,101032.98
2023-05-01T10:21:53.168Z,101031.47
2023-05-01T10:24:22.210Z,101023.70
2023-05-01T10:26:51.320Z,101023.13
2023-05-01T10:29:20.900Z,101024.80
2023-05-01T10:31:50.074Z,101023.85
2023-05-01T10:34:20.907Z,101016.38
2023-05-01T10:36:53.873Z,101007.52
2023-05-01T10:39:32.288Z,101007.70
2023-05-01T10:42:05.322Z,101005.01
2023-05-01T10:44:34.461Z,101004.64
2023-05-01T10:47:16.976Z,101007.40
2023-05-01T10:50:04.942Z,101004.88
2023-05-01T10:52:57.369Z,100993.28
2023-05-01T10:55:39.076Z,100984.79
2023-05-01T10:58:08.163Z,100981.79
2023-05-01T11:00:37.352Z,100981.70
2023-05-01T11:03:23.516Z,100978.36
2023-05-01T11:06:08.570Z,100974.27
2023-05-01T11:08:46.493Z,100972.54
2023-05-01T11:11:32.098Z,100973.33
2023-05-01T11:14:01.637Z,100961.29
2023-05-01T11:16:44.403Z,100957.15
2023-05-01T11:19:33.508Z,100952.05
2023-05-01T11:22:11.590Z,100953.39
2023-05-01T11:24:40.881Z,100956.27
2023-05-01T11:27:12.980Z,100947.04
2023-05-01T11:29:44.127Z,100946.15
2023-05-01T11:32:18.434Z,100931.36
2023-05-01T11:34:48.513Z,100933.43
2023-05-01T11:37:38.462Z,100931.27
2023-05-01T11:40:18.475Z,100925.19
2023-05-01T11:42:47.595Z,100923.28
2023-05-01T11:45:17.224Z,100919.91
2023-05-01T11:47:47.169Z,100915.88
2023-05-01T11:50:16.277Z,100910.81
2023-05-01T11:52:48.566Z,100902.98
2023-05-01T11:55:23.992Z,100897.72
2023-05-01T11:57:53.567Z,100897.49
2023-05-01T12:00:29.998Z,100894.81
2023-05-01T12:03:01.049Z,100890.95
2023-05-01T12:05:31.177Z,100887.40
2023-05-01T12:08:16.711Z,100876.48
2023-05-01T12:10:47.022Z,100875.98
2023-05-01T12:13:16.825Z,100871.08
2023-05-01T12:15:47.294Z,100864.36
2023-05-01T12:18:16.946Z,100859.21
2023-05-01T12:20:46.858Z,100853.64
2023-05-01T12:23:16.384Z,100851.92
2023-05-01T12:25:46.506Z,100846.73
2023-05-01T12:28:16.343Z,100848.70
2023-05-01T12:30:45.785Z,100847.98
2023-05-01T12:33:16.037Z,100847.36
2023-05-01T12:35:45.749Z,100846.58
2023-05-01T12:38:15.495Z,100835.23
2023-05-01T12:40:54.225Z,100831.77
2023-05-01T12:43:30.495Z,100829.40
2023-05-01T12:46:02.326Z,100820.05
2023-05-01T12:48:31.682Z,100814.45
2023-05-01T12:51:00.902Z,100817.27
2023-05-01T12:53:30.095Z,100808.66
2023-05-01T12:55:59.255Z,100806.05
2023-05-01T12:58:36.393Z,100799.04
2023-05-01T13:01:05.554Z,100789.76
2023-05-01T13:03:36.290Z,100791.73
2023-05-01T13:06:07.812Z,100784.11
2023-05-01T13:08:38.373Z,100784.13
2023-05-01T13:11:11.471Z,100782.39
2023-05-01T13:13:40.752Z,100782.33
2023-05-01T13:16:12.399Z,100782.48
2023-05-01T13:18:45.781Z,100778.22
2023-05-01T13:21:15.497Z,100773.41
2023-05-01T13:23:51.951Z,100771.54
2023-05-01T13:26:25.016Z,100767.23
2023-05-01T13:28:54.226Z,100763.66
2023-05-01T13:31:23.362Z,100762.87
2023-05-01T13:33:53.348Z,100754.84
2023-05-01T13:36:26.622Z,100748.47
2023-05-01T13:38:56.986Z,100748.71
2023-05-01T13:41:26.969Z,100745.09
2023-05-01T13:43:56.509Z,100749.82
2023-05-01T13:46:26.071Z,100747.14
2023-05-01T13:48:55.262Z,100746.28
2023-05-01T13:51:24.990Z,100745.65
2023-05-01T13:53:55.905Z,100747.15
2023-05-01T13:56:25.089Z,100745.42
2023-05-01T13:58:54.189Z,100741.72
2023-05-01T14:01:23.444Z,100732.02
2023-05-01T14:03:53.906Z,100726.73
2023-05-01T14:06:23.126Z,100720.48
2023-05-01T14:08:52.378Z,100718.45
2023-05-01T14:11:21.522Z,100710.73
2023-05-01T14:13:50.840Z,100705.62
2023-05-01T14:16:23.071Z,100700.98
2023-05-01T14:18:53.068Z,100699.55
2023-05-01T14:21:23.193Z,100700.45
2023-05-01T14:23:52.757Z,100694.66
2023-05-01T14:26:21.864Z,100686.48
2023-05-01T14:28:51.330Z,100682.15
2023-05-01T14:31:26.013Z,100672.08
2023-05-01T14:33:56.099Z,100665.89
2023-05-01T14:36:25.364Z,100664.11
2023-05-01T14:38:55.705Z,100661.05
2023-05-01T14:41:24.856Z,100656.88
2023-05-01T14:43:56.781Z,100656.56
2023-05-01T14:46:31.261Z,100652.42
2023-05-01T14:49:01.761Z,100648.88
2023-05-01T14:51:31.736Z,100648.00
2023-05-01T14:54:01.092Z,100642.91
2023-05-01T14:56:30.164Z,100641.27
2023-05-01T14:58:59.208Z,100646.02
2023-05-01T15:01:28.415Z,100644.77
2023-05-01T15:03:57.646Z,100643.94
2023-05-01T15:06:29.355Z,100637.88
2023-05-01T15:08:58.628Z,100634.45
2023-05-01T15:11:29.701Z,100627.98
2023-05-01T15:13:58.777Z,100627.09
2023-05-01T15:16:28.054Z,100622.11
2023-05-01T15:18:57.446Z,100619.83
2023-05-01T15:21:26.565Z,100618.84
2023-05-01T15:23:55.572Z,100616.14
2023-05-01T15:26:24.628Z,100611.54
2023-05-01T15:28:56.677Z,100608.95
2023-05-01T15:31:25.801Z,100603.48
2023-05-01T15:33:54.837Z,100598.54
2023-05-01T15:36:23.913Z,100595.34
2023-05-01T15:38:53.539Z,100588.10
2023-05-01T15:41:22.754Z,100589.81
2023-05-01T15:43:51.847Z,100592.36
2023-05-01T15:46:21.237Z,100590.90
2023-05-01T15:48:50.382Z,100587.71
2023-05-01T15:51:19.582Z,100585.95
2023-05-01T15:53:48.591Z,100583.39
2023-05-01T15:56:17.712Z,100581.71
2023-05-01T15:58:46.754Z,100581.17
2023-05-01T16:01:15.941Z,100580.69
2023-05-01T16:03:45.799Z,100579.20
2023-05-01T16:06:15.134Z,100580.70
2023-05-01T16:08:44.253Z,100573.06
2023-05-01T16:11:13.437Z,100573.92
2023-05-01T16:13:42.729Z,100575.41
2023-05-01T16:16:12.434Z,100568.27
2023-05-01T16:18:41.797Z,100565.52
2023-05-01T16:21:11.085Z,100567.73
2023-05-01T16:23:40.433Z,100566.08
2023-05-01T16:26:10.463Z,100561.19
2023-05-01T16:28:39.940Z,100562.77
2023-05-01T16:31:23.580Z,100562.99
2023-05-01T16:33:55.480Z,100556.25
2023-05-01T16:36:24.728Z,100556.17
2023-05-01T16:38:53.834Z,100556.18
2023-05-01T16:41:22.865Z,100560.33
2023-05-01T16:43:51.949Z,100561.17
2023-05-01T16:46:50.105Z,100559.93
2023-05-01T16:49:19.228Z,100565.36
2023-05-01T16:51:48.770Z,100561.67
2023-05-01T16:54:17.906Z,100562.15
2023-05-01T16:56:46.932Z,100563.40
2023-05-01T16:59:16.161Z,100562.69
2023-05-01T17:01:45.280Z,100561.67
2023-05-01T17:04:14.538Z,100556.56
2023-05-01T17:07:22.714Z,100554.11
2023-05-01T17:09:51.769Z,100552.84
2023-05-01T17:12:20.824Z,100551.34
2023-05-01T17:14:50.102Z,100556.55
2023-05-01T17:17:19.226Z,100551.65
2023-05-01T17:19:48.353Z,100549.02
2023-05-01T17:22:17.434Z,100547.48
2023-05-01T17:24:46.466Z,100546.35
2023-05-01T17:27:15.667Z,100552.50
2023-05-01T17:29:44.796Z,100548.51
2023-05-01T17:32:18.159Z,100553.07
2023-05-01T17:34:58.999Z,100548.77
2023-05-01T17:37:28.679Z,100551.17
2023-05-01T17:39:58.198Z,100549.38
2023-05-01T17:42:27.483Z,100547.03
2023-05-01T17:44:56.622Z,100547.19
2023-05-01T17:47:26.276Z,100547.83
2023-05-01T17:49:55.547Z,100546.48
2023-05-01T17:52:24.610Z,100544.77
2023-05-01T17:54:53.705Z,100543.12
2023-05-01T17:57:24.813Z,100541.23
2023-05-01T17:59:53.860Z,100540.33
2023-05-01T18:02:22.991Z,100544.52
2023-05-01T18:04:52.249Z,100542.39
2023-05-01T18:07:21.442Z,100540.73
2023-05-01T18:09:50.488Z,100540.53
2023-05-01T18:12:20.049Z,100542.23
2023-05-01T18:14:49.114Z,100541.09
2023-05-01T18:17:21.514Z,100540.80
2023-05-01T18:19:52.640Z,100536.33
2023-05-01T18:22:21.923Z,100533.80
2023-05-01T18:24:50.971Z,100538.85
2023-05-01T18:27:20.021Z,100539.46
2023-05-01T18:29:49.139Z,100539.06
2023-05-01T18:32:18.240Z,100539.44
2023-05-01T18:34:47.300Z,100538.46
2023-05-01T18:37:16.569Z,100539.78
2023-05-01T18:40:08.548Z,100540.18
2023-05-01T18:42:37.832Z,100540.63
2023-05-01T18:45:08.057Z,100543.14
2023-05-01T18:47:37.269Z,100541.46
2023-05-01T18:50:07.562Z,100542.85
2023-05-01T18:52:36.635Z,100545.81
2023-05-01T18:55:08.135Z,100547.81
2023-05-01T18:57:37.242Z,100545.66
2023-05-01T19:00:07.630Z,100547.10
2023-05-01T19:02:36.809Z,100544.54
2023-05-01T19:05:08.381Z,100544.04
2023-05-01T19:07:40.469Z,100543.11
2023-05-01T19:10:09.898Z,100539.25
2023-05-01T19:12:39.567Z,100539.23
2023-05-01T19:15:10.109Z,100536.10
2023-05-01T19:17:39.201Z,100532.27
2023-05-01T19:20:29.518Z,100529.45
2023-05-01T19:22:58.641Z,100525.83
2023-05-01T19:25:27.729Z,100530.18
2023-05-01T19:27:56.832Z,100525.80
2023-05-01T19:30:25.960Z,100524.89
2023-05-01T19:32:55.372Z,100524.41
2023-05-01T19:35:24.510Z,100524.09
2023-05-01T19:37:57.571Z,100524.80
2023-05-01T19:40:28.311Z,100522.41
2023-05-01T19:42:57.493Z,100518.35
2023-05-01T19:45:26.617Z,100520.19
2023-05-01T19:47:55.914Z,100514.83
2023-05-01T19:50:25.124Z,100512.92
2023-05-01T19:52:54.248Z,100512.71
2023-05-01T19:55:23.477Z,100515.63
2023-05-01T19:57:55.565Z,100510.17
2023-05-01T20:00:24.742Z,100504.80
2023-05-01T20:02:54.072Z,100505.46
2023-05-01T20:05:23.491Z,100507.11
2023-05-01T20:07:52.731Z,100505.23
2023-05-01T20:10:42.195Z,100505.92
2023-05-01T20:13:15.677Z,100497.06
2023-05-01T20:15:45.183Z,100496.75
2023-05-01T20:18:14.661Z,100496.02
2023-05-01T20:20:43.883Z,100494.86
2023-05-01T20:23:14.187Z,100490.61
2023-05-01T20:25:43.504Z,100490.23
2023-05-01T20:28:12.973Z,100490.83
2023-05-01T20:30:43.136Z,100487.99
2023-05-01T20:33:12.497Z,100489.45
2023-05-01T20:35:41.730Z,100484.73
2023-05-01T20:38:10.865Z,100486.62
2023-05-01T20:40:42.633Z,100483.91
2023-05-01T20:43:11.824Z,100485.08
2023-05-01T20:45:40.865Z,100479.08
2023-05-01T20:48:09.989Z,100479.37
2023-05-01T20:50:39.166Z,100476.19
2023-05-01T20:53:08.202Z,100475.86
2023-05-01T20:55:37.284Z,100469.29
2023-05-01T20:58:09.065Z,100469.89
2023-05-01T21:00:38.084Z,100466.98
2023-05-01T21:03:07.292Z,100468.33
2023-05-01T21:05:36.390Z,100470.23
2023-05-01T21:08:05.608Z,100466.94
2023-05-01T21:10:34.864Z,100463.64
2023-05-01T21:13:03.954Z,100462.83
2023-05-01T21:15:33.000Z,100466.44
2023-05-01T21:18:02.268Z,100458.81
2023-05-01T21:20:32.224Z,100457.17
2023-05-01T21:23:01.445Z,100456.64
2023-05-01T21:25:30.775Z,100455.73
2023-05-01T21:28:00.003Z,100457.58
2023-05-01T21:30:30.407Z,100454.70
2023-05-01T21:32:59.530Z,100455.41
2023-05-01T21:35:49.338Z,100457.71
2023-05-01T21:38:18.552Z,100454.11
2023-05-01T21:40:47.622Z,100453.54
2023-05-01T21:43:18.747Z,100453.21
2023-05-01T21:45:47.929Z,100452.23
2023-05-01T21:48:17.175Z,100449.31
2023-05-01T21:50:48.280Z,100447.52
2023-05-01T21:53:17.384Z,100447.69
2023-05-01T21:55:46.563Z,100445.76
2023-05-01T21:58:15.700Z,100446.61
2023-05-01T22:00:45.545Z,100444.79
2023-05-01T22:03:16.204Z,100446.98
2023-05-01T22:05:45.347Z,100448.69
2023-05-01T22:08:14.404Z,100447.56
2023-05-01T22:10:43.468Z,100450.08
2023-05-01T22:13:12.504Z,100451.45
2023-05-01T22:15:41.519Z,100448.70
2023-05-01T22:18:10.730Z,100445.80
2023-05-01T22:20:39.790Z,100445.87
2023-05-01T22:23:08.805Z,100442.88
2023-05-01T22:25:40.658Z,100442.85
2023-05-01T22:28:09.674Z,100441.77
2023-05-01T22:30:38.722Z,100439.80
2023-05-01T22:33:07.889Z,100438.45
2023-05-01T22:35:36.995Z,100437.02
2023-05-01T22:38:06.053Z,100430.50
2023-05-01T22:40:35.166Z,100429.28
2023-05-01T22:43:04.174Z,100425.88
2023-05-01T22:45:33.228Z,100425.58
2023-05-01T22:48:02.320Z,100424.25
2023-05-01T22:50:33.156Z,100420.65
2023-05-01T22:53:02.223Z,100420.94
2023-05-01T22:55:31.341Z,100418.80
2023-05-01T22:58:00.405Z,100418.73
2023-05-01T23:00:29.578Z,100420.83
2023-05-01T23:02:58.980Z,100419.21
2023-05-01T23:05:28.115Z,100416.06
2023-05-01T23:07:57.129Z,100414.09
2023-05-01T23:10:26.891Z,100416.08
2023-05-01T23:12:55.936Z,100415.58
2023-05-01T23:15:25.657Z,100418.10
2023-05-01T23:17:56.064Z,100421.66
2023-05-01T23:20:25.110Z,100417.73
2023-05-01T23:22:54.151Z,100411.11
2023-05-01T23:25:24.676Z,100412.86
2023-05-01T23:27:54.758Z,100411.21
2023-05-01T23:30:24.012Z,100412.02
2023-05-01T23:32:57.202Z,100411.88
2023-05-01T23:35:26.265Z,100408.84
2023-05-01T23:37:55.320Z,100410.92
2023-05-01T23:40:24.402Z,100406.23
2023-05-01T23:42:53.768Z,100408.98
2023-05-01T23:45:22.840Z,100404.14
2023-05-01T23:47:51.920Z,100404.36
2023-05-01T23:50:21.050Z,100404.81
2023-05-01T23:52:50.094Z,100402.54
2023-05-01T23:55:20.462Z,100403.73
2023-05-01T23:57:49.511Z,100401.05
